createdAt,value
2019-05-10T00:02:26.601Z,82.24
2019-05-10T00:05:18.405Z,82.44
2019-05-10T00:08:08.175Z,82.37
2019-05-10T00:10:51.754Z,82.17
2019-05-10T00:13:24.333Z,82.49
2019-05-10T00:15:55.968Z,82.88
2019-05-10T00:18:25.937Z,82.88
2019-05-10T00:20:56.143Z,82.55
2019-05-10T00:23:26.223Z,82.60
2019-05-10T00:25:55.972Z,82.82
2019-05-10T00:28:25.925Z,82.71
2019-05-10T00:30:56.006Z,82.71
2019-05-10T00:33:25.747Z,82.74
2019-05-10T00:35:57.625Z,82.86
2019-05-10T00:38:27.928Z,82.80
2019-05-10T00:41:00.887Z,82.88
2019-05-10T00:43:31.741Z,82.94
2019-05-10T00:46:02.654Z,82.97
2019-05-10T00:48:32.610Z,82.88
2019-05-10T00:51:02.561Z,82.99
2019-05-10T00:53:34.900Z,83.01
2019-05-10T00:56:04.685Z,82.99
2019-05-10T00:58:34.521Z,82.91
2019-05-10T01:01:04.835Z,82.85
2019-05-10T01:03:34.987Z,82.93
2019-05-10T01:06:04.984Z,83.00
2019-05-10T01:08:35.189Z,83.18
2019-05-10T01:11:05.608Z,83.17
2019-05-10T01:13:36.252Z,82.96
2019-05-10T01:16:06.677Z,82.99
2019-05-10T01:18:38.861Z,82.89
2019-05-10T01:21:08.726Z,83.03
2019-05-10T01:23:38.519Z,83.24
2019-05-10T01:26:08.441Z,83.17
2019-05-10T01:28:38.768Z,83.04
2019-05-10T01:31:08.647Z,83.02
2019-05-10T01:33:39.148Z,82.98
2019-05-10T01:36:09.178Z,83.16
2019-05-10T01:38:39.761Z,83.28
2019-05-10T01:41:09.921Z,83.28
2019-05-10T01:43:39.890Z,83.17
2019-05-10T01:46:10.393Z,83.08
2019-05-10T01:48:40.633Z,83.03
2019-05-10T01:51:10.731Z,82.99
2019-05-10T01:53:41.760Z,83.04
2019-05-10T01:56:11.527Z,83.06
2019-05-10T01:58:41.644Z,82.92
2019-05-10T02:01:12.357Z,83.11
2019-05-10T02:03:42.378Z,83.18
2019-05-10T02:06:12.744Z,83.26
2019-05-10T02:08:42.846Z,83.26
2019-05-10T02:11:12.642Z,83.12
2019-05-10T02:13:42.461Z,83.24
2019-05-10T02:16:12.870Z,83.25
2019-05-10T02:18:42.754Z,83.22
2019-05-10T02:21:12.700Z,83.22
2019-05-10T02:23:43.393Z,83.20
2019-05-10T02:26:13.277Z,83.22
2019-05-10T02:28:45.104Z,83.25
2019-05-10T02:31:21.484Z,83.39
2019-05-10T02:33:50.071Z,83.31
2019-05-10T02:36:20.621Z,83.42
2019-05-10T02:38:50.805Z,83.25
2019-05-10T02:41:21.347Z,83.24
2019-05-10T02:43:52.529Z,83.06
2019-05-10T02:46:23.087Z,83.09
2019-05-10T02:48:53.243Z,83.28
2019-05-10T02:51:23.227Z,83.33
2019-05-10T02:53:54.690Z,83.32
2019-05-10T02:56:31.011Z,83.23
2019-05-10T02:58:58.626Z,83.18
2019-05-10T03:01:34.472Z,83.08
2019-05-10T03:04:04.976Z,83.02
2019-05-10T03:06:36.602Z,83.10
2019-05-10T03:09:09.066Z,82.93
2019-05-10T03:11:47.735Z,82.93
2019-05-10T03:14:20.348Z,82.94
2019-05-10T03:16:53.819Z,82.87
2019-05-10T03:19:24.245Z,82.82
2019-05-10T03:22:09.305Z,82.80
2019-05-10T03:24:39.221Z,82.60
2019-05-10T03:27:09.510Z,82.75
2019-05-10T03:29:39.565Z,82.81
2019-05-10T03:32:10.612Z,82.88
2019-05-10T03:34:42.577Z,82.92
2019-05-10T03:37:12.443Z,83.12
2019-05-10T03:39:42.622Z,83.11
2019-05-10T03:42:12.609Z,83.18
2019-05-10T03:44:44.323Z,83.37
2019-05-10T03:47:14.535Z,83.21
2019-05-10T03:49:47.597Z,83.31
2019-05-10T03:52:17.818Z,83.15
2019-05-10T03:54:48.723Z,83.08
2019-05-10T03:57:19.669Z,83.08
2019-05-10T03:59:49.732Z,83.25
2019-05-10T04:02:20.006Z,83.11
2019-05-10T04:04:51.469Z,82.94
2019-05-10T04:07:21.196Z,82.94
2019-05-10T04:09:52.335Z,83.11
2019-05-10T04:12:23.489Z,83.04
2019-05-10T04:14:53.609Z,83.05
2019-05-10T04:17:23.560Z,82.97
2019-05-10T04:19:54.208Z,82.83
2019-05-10T04:22:24.133Z,82.98
2019-05-10T04:24:53.964Z,82.95
2019-05-10T04:27:32.207Z,83.03
2019-05-10T04:29:56.063Z,83.12
2019-05-10T04:32:26.053Z,83.01
2019-05-10T04:34:55.627Z,83.04
2019-05-10T04:37:26.494Z,82.92
2019-05-10T04:39:56.429Z,82.80
2019-05-10T04:42:26.147Z,82.81
2019-05-10T04:44:55.961Z,83.11
2019-05-10T04:47:26.403Z,83.15
2019-05-10T04:49:56.014Z,83.21
2019-05-10T04:52:25.881Z,83.03
2019-05-10T04:54:57.769Z,82.86
2019-05-10T04:57:28.596Z,82.84
2019-05-10T04:59:58.233Z,82.76
2019-05-10T05:02:30.995Z,82.60
2019-05-10T05:05:01.922Z,82.61
2019-05-10T05:07:31.571Z,82.41
2019-05-10T05:10:01.830Z,82.49
2019-05-10T05:12:31.676Z,82.46
2019-05-10T05:15:01.757Z,82.27
2019-05-10T05:17:33.294Z,82.17
2019-05-10T05:20:02.952Z,81.96
2019-05-10T05:22:33.102Z,81.75
2019-05-10T05:25:03.907Z,81.34
2019-05-10T05:27:33.567Z,80.86
2019-05-10T05:30:03.487Z,80.67
2019-05-10T05:32:38.680Z,80.52
2019-05-10T05:35:05.944Z,80.27
2019-05-10T05:37:38.167Z,80.16
2019-05-10T05:40:09.828Z,79.95
2019-05-10T05:42:39.995Z,79.79
2019-05-10T05:45:10.273Z,79.52
2019-05-10T05:47:42.308Z,79.29
2019-05-10T05:50:11.768Z,79.11
2019-05-10T05:52:41.708Z,78.95
2019-05-10T05:55:12.371Z,78.88
2019-05-10T05:57:42.434Z,78.75
2019-05-10T06:00:12.588Z,78.57
2019-05-10T06:02:44.973Z,78.38
2019-05-10T06:05:32.209Z,78.33
2019-05-10T06:07:52.329Z,78.28
2019-05-10T06:10:21.704Z,78.00
2019-05-10T06:12:52.950Z,77.91
2019-05-10T06:15:29.185Z,78.01
2019-05-10T06:18:03.653Z,77.95
2019-05-10T06:20:30.474Z,77.88
2019-05-10T06:23:07.551Z,77.72
2019-05-10T06:25:39.653Z,77.46
2019-05-10T06:28:03.444Z,77.04
2019-05-10T06:30:34.848Z,76.88
2019-05-10T06:33:12.714Z,76.86
2019-05-10T06:35:40.792Z,76.73
2019-05-10T06:38:11.933Z,76.56
2019-05-10T06:40:47.203Z,76.55
2019-05-10T06:43:15.550Z,76.38
2019-05-10T06:45:46.764Z,76.24
2019-05-10T06:48:25.843Z,75.98
2019-05-10T06:50:49.029Z,75.65
2019-05-10T06:53:19.268Z,75.37
2019-05-10T06:55:49.249Z,75.21
2019-05-10T06:58:20.495Z,75.06
2019-05-10T07:00:50.553Z,74.80
2019-05-10T07:03:20.246Z,74.79
2019-05-10T07:05:50.111Z,74.74
2019-05-10T07:08:20.518Z,74.64
2019-05-10T07:10:50.314Z,74.47
2019-05-10T07:13:19.934Z,74.25
2019-05-10T07:15:50.003Z,73.88
2019-05-10T07:18:22.668Z,73.15
2019-05-10T07:21:00.967Z,73.00
2019-05-10T07:23:30.171Z,72.82
2019-05-10T07:26:00.314Z,72.66
2019-05-10T07:28:29.913Z,72.18
2019-05-10T07:30:59.498Z,71.92
2019-05-10T07:33:32.133Z,71.78
2019-05-10T07:36:01.106Z,71.67
2019-05-10T07:38:32.947Z,71.31
2019-05-10T07:41:02.902Z,70.81
2019-05-10T07:43:32.794Z,70.42
2019-05-10T07:46:06.475Z,70.16
2019-05-10T07:48:34.960Z,70.19
2019-05-10T07:51:04.621Z,68.44
2019-05-10T07:53:34.150Z,65.99
2019-05-10T07:56:06.071Z,64.67
2019-05-10T07:58:38.229Z,66.28
2019-05-10T08:01:07.157Z,67.95
2019-05-10T08:03:44.273Z,67.23
2019-05-10T08:06:15.058Z,65.56
2019-05-10T08:08:43.337Z,65.75
2019-05-10T08:11:13.098Z,62.41
2019-05-10T08:13:42.818Z,61.60
2019-05-10T08:16:19.568Z,61.13
2019-05-10T08:18:44.216Z,61.19
2019-05-10T08:21:23.912Z,61.58
2019-05-10T08:23:48.144Z,62.02
2019-05-10T08:26:22.447Z,62.62
2019-05-10T08:28:52.368Z,63.28
2019-05-10T08:31:22.203Z,63.76
2019-05-10T08:33:58.581Z,63.95
2019-05-10T08:36:24.521Z,64.14
2019-05-10T08:39:05.100Z,64.41
2019-05-10T08:41:25.832Z,64.62
2019-05-10T08:43:55.654Z,64.89
2019-05-10T08:46:37.366Z,64.99
2019-05-10T08:48:57.789Z,65.13
2019-05-10T08:51:27.377Z,65.35
2019-05-10T08:53:58.363Z,65.25
2019-05-10T08:56:28.479Z,65.31
2019-05-10T08:58:58.063Z,65.26
2019-05-10T09:01:30.581Z,65.53
2019-05-10T09:04:06.439Z,65.52
2019-05-10T09:06:32.756Z,65.73
2019-05-10T09:09:05.948Z,65.67
2019-05-10T09:11:34.078Z,65.78
2019-05-10T09:14:04.447Z,65.99
2019-05-10T09:16:39.314Z,66.26
2019-05-10T09:19:06.333Z,66.37
2019-05-10T09:21:41.300Z,66.67
2019-05-10T09:24:08.616Z,67.05
2019-05-10T09:26:41.699Z,67.35
2019-05-10T09:29:12.163Z,68.45
2019-05-10T09:31:48.597Z,68.91
2019-05-10T09:34:13.892Z,69.74
2019-05-10T09:36:47.130Z,70.31
2019-05-10T09:39:21.635Z,70.31
2019-05-10T09:41:49.066Z,70.70
2019-05-10T09:44:18.940Z,71.13
2019-05-10T09:46:48.775Z,71.19
2019-05-10T09:49:19.153Z,71.46
2019-05-10T09:51:48.901Z,72.31
2019-05-10T09:54:23.248Z,72.81
2019-05-10T09:56:52.273Z,73.31
2019-05-10T09:59:22.170Z,73.46
2019-05-10T10:01:51.962Z,73.85
2019-05-10T10:04:21.777Z,74.14
2019-05-10T10:06:53.283Z,74.22
2019-05-10T10:09:33.758Z,74.65
2019-05-10T10:12:01.725Z,75.31
2019-05-10T10:14:37.786Z,75.83
2019-05-10T10:17:03.289Z,75.90
2019-05-10T10:19:34.303Z,76.36
2019-05-10T10:22:05.687Z,76.61
2019-05-10T10:24:40.230Z,76.68
2019-05-10T10:27:07.917Z,77.09
2019-05-10T10:29:38.761Z,77.20
2019-05-10T10:32:09.941Z,77.32
2019-05-10T10:34:43.056Z,77.31
2019-05-10T10:37:14.676Z,77.16
2019-05-10T10:39:43.935Z,77.25
2019-05-10T10:42:13.832Z,77.48
2019-05-10T10:44:43.423Z,77.41
2019-05-10T10:47:12.935Z,77.64
2019-05-10T10:49:42.954Z,77.25
2019-05-10T10:52:13.541Z,77.53
2019-05-10T10:54:43.284Z,77.58
2019-05-10T10:57:13.206Z,77.71
2019-05-10T10:59:47.378Z,77.88
2019-05-10T11:02:31.467Z,77.75
2019-05-10T11:04:49.010Z,77.89
2019-05-10T11:07:19.653Z,78.03
2019-05-10T11:09:53.694Z,78.23
2019-05-10T11:12:24.013Z,78.20
2019-05-10T11:14:52.876Z,77.96
2019-05-10T11:17:23.701Z,77.90
2019-05-10T11:19:53.709Z,77.82
2019-05-10T11:22:27.401Z,77.90
2019-05-10T11:25:02.970Z,77.93
2019-05-10T11:27:28.042Z,77.82
2019-05-10T11:30:00.703Z,77.47
2019-05-10T11:32:31.469Z,77.39
2019-05-10T11:35:05.105Z,77.01
2019-05-10T11:37:36.372Z,76.65
2019-05-10T11:40:06.489Z,76.39
2019-05-10T11:42:43.809Z,75.65
2019-05-10T11:45:11.121Z,76.13
2019-05-10T11:47:41.073Z,76.45
2019-05-10T11:50:26.579Z,76.43
2019-05-10T11:52:43.325Z,75.94
2019-05-10T11:55:13.687Z,75.37
2019-05-10T11:57:44.286Z,75.21
2019-05-10T12:00:28.016Z,74.94
2019-05-10T12:03:03.350Z,74.66
2019-05-10T12:07:54.707Z,74.19
2019-05-10T12:10:25.859Z,73.87
2019-05-10T12:13:08.725Z,73.28
2019-05-10T12:15:31.440Z,73.57
2019-05-10T12:18:04.549Z,72.79
2019-05-10T12:20:51.045Z,73.40
2019-05-10T12:23:05.672Z,73.18
2019-05-10T12:25:51.261Z,72.53
2019-05-10T12:26:30.936Z,74.43
2019-05-10T12:28:08.823Z,73.09
2019-05-10T12:30:40.914Z,73.33
2019-05-10T12:33:24.251Z,73.31
2019-05-10T12:35:50.967Z,73.18
2019-05-10T12:38:29.686Z,73.80
2019-05-10T12:40:55.600Z,73.96
2019-05-10T12:43:30.810Z,73.76
2019-05-10T12:46:00.588Z,73.57
2019-05-10T12:48:31.705Z,73.41
2019-05-10T12:51:07.739Z,73.29
2019-05-10T12:53:36.628Z,73.28
2019-05-10T12:56:05.167Z,73.23
2019-05-10T12:58:35.009Z,72.83
2019-05-10T13:01:04.732Z,73.19
2019-05-10T13:03:34.747Z,73.70
2019-05-10T13:06:04.861Z,73.35
2019-05-10T13:08:34.740Z,73.39
2019-05-10T13:11:05.082Z,73.01
2019-05-10T13:13:35.954Z,73.22
2019-05-10T13:16:10.017Z,73.02
2019-05-10T13:18:50.590Z,72.89
2019-05-10T13:21:20.673Z,72.76
2019-05-10T13:23:45.719Z,72.52
2019-05-10T13:26:15.347Z,72.24
2019-05-10T13:28:45.729Z,72.71
2019-05-10T13:31:15.410Z,72.67
2019-05-10T13:33:45.368Z,72.35
2019-05-10T13:36:15.215Z,72.54
2019-05-10T13:38:49.433Z,72.54
2019-05-10T13:41:24.463Z,71.96
2019-05-10T13:43:50.946Z,71.40
2019-05-10T13:46:20.548Z,71.26
2019-05-10T13:48:51.197Z,70.92
2019-05-10T13:51:21.635Z,70.64
2019-05-10T13:53:53.793Z,70.34
2019-05-10T13:56:24.827Z,70.62
2019-05-10T13:58:55.289Z,70.35
2019-05-10T14:01:27.500Z,70.76
2019-05-10T14:04:01.083Z,70.85
2019-05-10T14:06:29.074Z,70.60
2019-05-10T14:08:59.877Z,70.19
2019-05-10T14:11:33.941Z,70.23
2019-05-10T14:14:01.660Z,70.19
2019-05-10T14:16:31.858Z,69.87
2019-05-10T14:19:02.396Z,69.50
2019-05-10T14:21:33.334Z,68.78
2019-05-10T14:24:08.992Z,68.80
2019-05-10T14:26:38.201Z,68.56
2019-05-10T14:29:11.075Z,68.46
2019-05-10T14:31:39.557Z,68.36
2019-05-10T14:34:16.453Z,68.34
2019-05-10T14:36:43.817Z,68.04
2019-05-10T14:39:13.563Z,68.11
2019-05-10T14:41:45.304Z,68.26
2019-05-10T14:44:15.669Z,68.33
2019-05-10T14:46:45.580Z,68.71
2019-05-10T14:49:17.486Z,69.09
2019-05-10T14:51:58.341Z,69.08
2019-05-10T14:54:19.885Z,69.22
2019-05-10T14:56:49.793Z,69.51
2019-05-10T14:59:19.840Z,69.42
2019-05-10T15:01:50.002Z,69.37
2019-05-10T15:04:43.896Z,69.12
2019-05-10T15:06:53.105Z,69.43
2019-05-10T15:09:24.227Z,69.46
2019-05-10T15:11:55.511Z,69.28
2019-05-10T15:14:26.435Z,69.74
2019-05-10T15:16:56.151Z,69.64
2019-05-10T15:19:40.563Z,70.23
2019-05-10T15:22:18.360Z,70.47
2019-05-10T15:24:44.798Z,71.08
2019-05-10T15:27:21.490Z,71.25
2019-05-10T15:29:47.515Z,71.08
2019-05-10T15:32:17.565Z,71.41
2019-05-10T15:35:04.301Z,71.57
2019-05-10T15:37:19.726Z,71.46
2019-05-10T15:39:53.504Z,71.10
2019-05-10T15:42:24.669Z,71.10
2019-05-10T15:44:54.601Z,71.07
2019-05-10T15:47:24.790Z,71.20
2019-05-10T15:50:00.128Z,71.08
2019-05-10T15:52:28.077Z,70.88
2019-05-10T15:54:58.263Z,70.71
2019-05-10T15:57:32.275Z,70.58
2019-05-10T16:00:00.910Z,70.51
2019-05-10T16:02:30.591Z,70.73
2019-05-10T16:05:00.233Z,70.27
2019-05-10T16:07:32.098Z,70.11
2019-05-10T16:10:04.528Z,69.92
2019-05-10T16:12:37.768Z,69.76
2019-05-10T16:15:13.678Z,69.14
2019-05-10T16:17:39.749Z,69.01
2019-05-10T16:20:10.655Z,68.75
2019-05-10T16:22:42.138Z,68.88
2019-05-10T16:25:11.824Z,68.91
2019-05-10T16:27:44.788Z,68.82
2019-05-10T16:30:17.730Z,68.65
2019-05-10T16:32:49.103Z,68.57
2019-05-10T16:35:22.068Z,68.78
2019-05-10T16:37:53.329Z,69.05
2019-05-10T16:40:24.032Z,69.24
2019-05-10T16:42:54.272Z,69.41
2019-05-10T16:45:28.775Z,69.48
2019-05-10T16:47:59.280Z,69.67
2019-05-10T16:50:31.716Z,69.88
2019-05-10T16:53:08.231Z,70.04
2019-05-10T16:55:41.053Z,69.90
2019-05-10T16:58:22.438Z,69.87
2019-05-10T17:00:52.528Z,69.77
2019-05-10T17:03:23.054Z,69.87
2019-05-10T17:05:58.313Z,69.70
2019-05-10T17:08:24.904Z,69.76
2019-05-10T17:10:55.031Z,69.81
2019-05-10T17:13:25.133Z,69.80
2019-05-10T17:15:56.515Z,69.90
2019-05-10T17:18:26.340Z,69.89
2019-05-10T17:20:56.019Z,69.76
2019-05-10T17:23:26.307Z,69.62
2019-05-10T17:25:55.955Z,68.93
2019-05-10T17:28:29.554Z,69.29
2019-05-10T17:30:59.766Z,69.18
2019-05-10T17:33:30.513Z,69.10
2019-05-10T17:36:07.948Z,69.03
2019-05-10T17:38:32.794Z,68.76
2019-05-10T17:41:02.417Z,68.86
2019-05-10T17:43:32.115Z,68.94
2019-05-10T17:46:02.642Z,68.95
2019-05-10T17:48:32.567Z,68.98
2019-05-10T17:51:02.325Z,69.40
2019-05-10T17:53:32.207Z,69.48
2019-05-10T17:56:03.437Z,69.46
2019-05-10T17:58:34.935Z,69.42
2019-05-10T18:01:04.769Z,69.71
2019-05-10T18:03:34.944Z,69.58
2019-05-10T18:06:05.395Z,69.74
2019-05-10T18:08:38.382Z,69.47
2019-05-10T18:11:09.439Z,69.46
2019-05-10T18:13:40.859Z,69.68
2019-05-10T18:16:13.547Z,69.51
2019-05-10T18:18:47.061Z,69.46
2019-05-10T18:21:22.197Z,69.28
2019-05-10T18:23:52.562Z,69.08
2019-05-10T18:26:22.403Z,69.08
2019-05-10T18:28:52.888Z,68.85
2019-05-10T18:31:22.984Z,68.82
2019-05-10T18:33:54.549Z,68.81
2019-05-10T18:36:24.832Z,68.57
2019-05-10T18:38:56.127Z,68.45
2019-05-10T18:41:26.210Z,68.35
2019-05-10T18:43:56.133Z,68.21
2019-05-10T18:46:27.849Z,68.15
2019-05-10T18:48:57.971Z,68.14
2019-05-10T18:51:28.174Z,68.34
2019-05-10T18:54:01.073Z,68.37
2019-05-10T18:56:33.231Z,68.20
2019-05-10T18:59:07.513Z,68.06
2019-05-10T19:01:40.535Z,68.05
2019-05-10T19:04:14.203Z,68.15
2019-05-10T19:06:44.287Z,68.12
2019-05-10T19:09:13.469Z,68.16
2019-05-10T19:11:44.338Z,68.33
2019-05-10T19:14:14.715Z,68.58
2019-05-10T19:16:46.730Z,68.74
2019-05-10T19:19:19.624Z,68.71
2019-05-10T19:21:52.911Z,68.71
2019-05-10T19:24:24.241Z,68.98
2019-05-10T19:26:54.771Z,68.78
2019-05-10T19:29:27.552Z,68.30
2019-05-10T19:32:03.581Z,68.32
2019-05-10T19:34:33.371Z,68.35
2019-05-10T19:37:03.365Z,68.32
2019-05-10T19:39:35.038Z,68.20
2019-05-10T19:42:07.708Z,67.90
2019-05-10T19:44:40.530Z,68.23
2019-05-10T19:47:17.695Z,68.50
2019-05-10T19:49:51.577Z,68.36
2019-05-10T19:52:27.805Z,68.20
2019-05-10T19:54:59.210Z,67.96
2019-05-10T19:57:29.351Z,68.23
2019-05-10T20:00:02.043Z,68.26
2019-05-10T20:02:34.722Z,68.32
2019-05-10T20:05:06.427Z,68.25
2019-05-10T20:07:45.973Z,68.04
2019-05-10T20:10:14.113Z,67.89
2019-05-10T20:12:43.769Z,68.15
2019-05-10T20:15:18.336Z,68.17
2019-05-10T20:17:53.521Z,67.92
2019-05-10T20:20:25.287Z,67.87
2019-05-10T20:22:56.163Z,68.26
2019-05-10T20:25:32.052Z,68.13
2019-05-10T20:28:10.669Z,68.25
2019-05-10T20:30:42.054Z,68.02
2019-05-10T20:33:15.307Z,67.90
2019-05-10T20:35:46.070Z,67.87
2019-05-10T20:38:16.630Z,67.98
2019-05-10T20:40:52.790Z,68.43
2019-05-10T20:43:24.921Z,68.38
2019-05-10T20:45:55.136Z,68.39
2019-05-10T20:48:25.272Z,68.53
2019-05-10T20:50:55.644Z,68.62
2019-05-10T20:53:27.819Z,68.67
2019-05-10T20:56:03.790Z,68.69
2019-05-10T20:58:34.106Z,68.62
2019-05-10T21:01:04.080Z,68.70
2019-05-10T21:03:37.023Z,68.92
2019-05-10T21:06:06.626Z,68.81
2019-05-10T21:08:37.507Z,68.72
2019-05-10T21:11:07.831Z,68.52
2019-05-10T21:13:38.330Z,68.33
2019-05-10T21:16:08.269Z,68.47
2019-05-10T21:18:38.061Z,68.30
2019-05-10T21:21:10.178Z,68.15
2019-05-10T21:23:40.186Z,68.42
2019-05-10T21:26:10.201Z,68.67
2019-05-10T21:28:40.148Z,68.48
2019-05-10T21:31:09.922Z,68.31
2019-05-10T21:33:42.791Z,68.62
2019-05-10T21:36:12.439Z,68.85
2019-05-10T21:38:42.504Z,68.82
2019-05-10T21:41:14.222Z,68.85
2019-05-10T21:43:47.427Z,68.87
2019-05-10T21:46:17.650Z,68.97
2019-05-10T21:48:49.305Z,69.20
2019-05-10T21:51:19.799Z,69.09
2019-05-10T21:53:51.926Z,69.32
2019-05-10T21:56:22.294Z,69.60
2019-05-10T21:58:51.929Z,69.33
2019-05-10T22:01:25.650Z,69.42
2019-05-10T22:03:57.581Z,69.35
2019-05-10T22:06:27.703Z,69.58
2019-05-10T22:08:57.367Z,69.72
2019-05-10T22:11:32.204Z,69.84
2019-05-10T22:14:01.983Z,69.96
2019-05-10T22:16:32.323Z,69.81
2019-05-10T22:19:04.175Z,70.02
2019-05-10T22:21:34.101Z,70.08
2019-05-10T22:24:06.403Z,69.90
2019-05-10T22:26:36.072Z,69.85
2019-05-10T22:29:05.748Z,69.81
2019-05-10T22:31:36.949Z,69.94
2019-05-10T22:34:06.849Z,70.10
2019-05-10T22:36:36.741Z,70.24
2019-05-10T22:39:08.013Z,70.27
2019-05-10T22:41:42.866Z,70.15
2019-05-10T22:44:13.050Z,70.22
2019-05-10T22:46:43.304Z,70.56
2019-05-10T22:49:13.303Z,70.45
2019-05-10T22:51:43.350Z,70.35
2019-05-10T22:54:12.959Z,70.28
2019-05-10T22:56:42.790Z,70.63
2019-05-10T22:59:12.735Z,70.52
2019-05-10T23:01:44.756Z,71.00
2019-05-10T23:04:17.582Z,71.12
2019-05-10T23:06:50.301Z,70.99
2019-05-10T23:09:24.755Z,70.96
2019-05-10T23:11:52.270Z,71.06
2019-05-10T23:14:24.827Z,71.25
2019-05-10T23:16:56.912Z,70.94
2019-05-10T23:19:26.662Z,71.14
2019-05-10T23:21:56.423Z,71.47
2019-05-10T23:24:41.205Z,71.50
2019-05-10T23:27:11.360Z,71.50
2019-05-10T23:29:41.063Z,71.40
2019-05-10T23:32:11.106Z,71.64
2019-05-10T23:34:42.446Z,71.78
2019-05-10T23:37:13.054Z,71.65
2019-05-10T23:39:42.844Z,71.78
2019-05-10T23:42:13.405Z,71.84
2019-05-10T23:44:43.083Z,72.29
2019-05-10T23:47:12.749Z,72.41
2019-05-10T23:49:42.979Z,72.51
2019-05-10T23:52:12.719Z,72.60
2019-05-10T23:54:42.816Z,72.70
2019-05-10T23:57:23.133Z,72.98
2019-05-10T23:59:52.792Z,72.65
